sensor_id;sensor_type;location;lat;lon;timestamp;temperature;humidity
64689;DHT22;62504;46.070;14.492;2023-04-02T00:02:28;8.90;99.90
64689;DHT22;62504;46.070;14.492;2023-04-02T00:07:47;9.10;99.90
64689;DHT22;62504;46.070;14.492;2023-04-02T00:15:27;9.00;99.90
64689;DHT22;62504;46.070;14.492;2023-04-02T00:17:52;9.00;99.90
64689;DHT22;62504;46.070;14.492;2023-04-02T00:20:19;8.90;99.90
64689;DHT22;62504;46.070;14.492;2023-04-02T00:22:45;8.70;99.90
64689;DHT22;62504;46.070;14.492;2023-04-02T00:25:13;8.80;99.90
64689;DHT22;62504;46.070;14.492;2023-04-02T00:27:38;8.70;99.90
64689;DHT22;62504;46.070;14.492;2023-04-02T00:30:05;8.70;99.90
64689;DHT22;62504;46.070;14.492;2023-04-02T00:32:32;8.60;99.90
64689;DHT22;62504;46.070;14.492;2023-04-02T00:34:59;8.60;99.90
64689;DHT22;62504;46.070;14.492;2023-04-02T00:37:31;8.70;99.90
64689;DHT22;62504;46.070;14.492;2023-04-02T00:40:24;8.60;99.90
64689;DHT22;62504;46.070;14.492;2023-04-02T00:42:53;8.80;99.90
64689;DHT22;62504;46.070;14.492;2023-04-02T00:47:49;8.80;99.90
64689;DHT22;62504;46.070;14.492;2023-04-02T00:50:35;8.90;99.90
64689;DHT22;62504;46.070;14.492;2023-04-02T00:53:11;8.70;99.90
64689;DHT22;62504;46.070;14.492;2023-04-02T00:55:39;8.80;99.90
64689;DHT22;62504;46.070;14.492;2023-04-02T00:58:28;8.80;99.90
64689;DHT22;62504;46.070;14.492;2023-04-02T01:00:58;8.80;99.90
64689;DHT22;62504;46.070;14.492;2023-04-02T01:06:02;8.50;99.90
64689;DHT22;62504;46.070;14.492;2023-04-02T01:16:10;8.60;99.90
64689;DHT22;62504;46.070;14.492;2023-04-02T01:18:50;8.60;99.90
64689;DHT22;62504;46.070;14.492;2023-04-02T01:21:20;8.50;99.90
64689;DHT22;62504;46.070;14.492;2023-04-02T01:29:18;8.60;99.90
64689;DHT22;62504;46.070;14.492;2023-04-02T01:31:45;8.70;99.90
64689;DHT22;62504;46.070;14.492;2023-04-02T01:34:15;8.60;99.90
64689;DHT22;62504;46.070;14.492;2023-04-02T01:37:00;8.70;99.90
64689;DHT22;62504;46.070;14.492;2023-04-02T01:44:42;8.50;99.90
64689;DHT22;62504;46.070;14.492;2023-04-02T01:47:13;8.70;99.90
64689;DHT22;62504;46.070;14.492;2023-04-02T01:49:41;8.60;99.90
64689;DHT22;62504;46.070;14.492;2023-04-02T01:52:08;8.60;99.90
64689;DHT22;62504;46.070;14.492;2023-04-02T01:54:38;8.60;99.90
64689;DHT22;62504;46.070;14.492;2023-04-02T01:57:06;8.70;99.90
64689;DHT22;62504;46.070;14.492;2023-04-02T01:59:32;8.60;99.90
64689;DHT22;62504;46.070;14.492;2023-04-02T02:02:02;8.60;99.90
64689;DHT22;62504;46.070;14.492;2023-04-02T02:04:28;8.60;99.90
64689;DHT22;62504;46.070;14.492;2023-04-02T02:06:56;8.50;99.90
64689;DHT22;62504;46.070;14.492;2023-04-02T02:09:27;8.60;99.90
64689;DHT22;62504;46.070;14.492;2023-04-02T02:11:53;8.60;99.90
64689;DHT22;62504;46.070;14.492;2023-04-02T02:14:23;8.60;99.90
64689;DHT22;62504;46.070;14.492;2023-04-02T02:16:50;8.60;99.90
64689;DHT22;62504;46.070;14.492;2023-04-02T02:24:48;8.50;99.90
64689;DHT22;62504;46.070;14.492;2023-04-02T02:29:54;8.30;99.90
64689;DHT22;62504;46.070;14.492;2023-04-02T02:32:24;8.20;99.90
64689;DHT22;62504;46.070;14.492;2023-04-02T02:37:44;8.20;99.90
64689;DHT22;62504;46.070;14.492;2023-04-02T02:40:16;8.30;99.90
64689;DHT22;62504;46.070;14.492;2023-04-02T02:42:50;8.30;99.90
64689;DHT22;62504;46.070;14.492;2023-04-02T02:45:26;8.20;99.90
64689;DHT22;62504;46.070;14.492;2023-04-02T02:47:52;8.20;99.90
64689;DHT22;62504;46.070;14.492;2023-04-02T02:50:27;8.30;99.90
64689;DHT22;62504;46.070;14.492;2023-04-02T02:53:03;8.20;99.90
64689;DHT22;62504;46.070;14.492;2023-04-02T02:55:30;8.20;99.90
64689;DHT22;62504;46.070;14.492;2023-04-02T02:58:06;8.10;99.90
64689;DHT22;62504;46.070;14.492;2023-04-02T03:00:35;8.20;99.90
64689;DHT22;62504;46.070;14.492;2023-04-02T03:03:05;8.10;99.90
64689;DHT22;62504;46.070;14.492;2023-04-02T03:05:32;8.00;99.90
64689;DHT22;62504;46.070;14.492;2023-04-02T03:07:59;8.20;99.90
64689;DHT22;62504;46.070;14.492;2023-04-02T03:10:47;8.20;99.90
64689;DHT22;62504;46.070;14.492;2023-04-02T03:15:50;8.20;99.90
64689;DHT22;62504;46.070;14.492;2023-04-02T03:26:35;7.80;99.90
64689;DHT22;62504;46.070;14.492;2023-04-02T03:29:16;7.80;99.90
64689;DHT22;62504;46.070;14.492;2023-04-02T03:32:21;7.70;99.90
64689;DHT22;62504;46.070;14.492;2023-04-02T03:34:55;7.80;99.90
64689;DHT22;62504;46.070;14.492;2023-04-02T03:37:25;7.80;99.90
64689;DHT22;62504;46.070;14.492;2023-04-02T03:39:54;7.90;99.90
64689;DHT22;62504;46.070;14.492;2023-04-02T03:42:28;7.90;99.90
64689;DHT22;62504;46.070;14.492;2023-04-02T03:45:11;7.80;99.90
64689;DHT22;62504;46.070;14.492;2023-04-02T03:50:34;7.80;99.90
64689;DHT22;62504;46.070;14.492;2023-04-02T03:53:03;7.80;99.90
64689;DHT22;62504;46.070;14.492;2023-04-02T03:55:32;7.80;99.90
64689;DHT22;62504;46.070;14.492;2023-04-02T04:00:48;8.00;99.90
64689;DHT22;62504;46.070;14.492;2023-04-02T04:06:24;8.00;99.90
64689;DHT22;62504;46.070;14.492;2023-04-02T04:08:56;8.00;99.90
64689;DHT22;62504;46.070;14.492;2023-04-02T04:11:30;7.90;99.90
64689;DHT22;62504;46.070;14.492;2023-04-02T04:14:04;8.00;99.90
64689;DHT22;62504;46.070;14.492;2023-04-02T04:16:38;7.90;99.90
64689;DHT22;62504;46.070;14.492;2023-04-02T04:19:14;7.70;99.90
64689;DHT22;62504;46.070;14.492;2023-04-02T04:21:42;7.70;99.90
64689;DHT22;62504;46.070;14.492;2023-04-02T04:24:18;7.60;99.90
64689;DHT22;62504;46.070;14.492;2023-04-02T04:32:21;8.00;99.90
64689;DHT22;62504;46.070;14.492;2023-04-02T04:34:57;8.00;99.90
64689;DHT22;62504;46.070;14.492;2023-04-02T04:37:35;7.90;99.90
64689;DHT22;62504;46.070;14.492;2023-04-02T04:42:37;7.90;99.90
64689;DHT22;62504;46.070;14.492;2023-04-02T04:48:02;8.10;99.90
64689;DHT22;62504;46.070;14.492;2023-04-02T04:53:21;8.00;99.90
64689;DHT22;62504;46.070;14.492;2023-04-02T04:55:49;7.90;99.90
64689;DHT22;62504;46.070;14.492;2023-04-02T04:58:26;7.90;99.90
64689;DHT22;62504;46.070;14.492;2023-04-02T05:06:59;7.90;99.90
64689;DHT22;62504;46.070;14.492;2023-04-02T05:15:24;8.10;99.90
64689;DHT22;62504;46.070;14.492;2023-04-02T05:26:52;8.30;99.90
64689;DHT22;62504;46.070;14.492;2023-04-02T05:29:25;8.30;99.90
64689;DHT22;62504;46.070;14.492;2023-04-02T05:31:54;8.20;99.90
64689;DHT22;62504;46.070;14.492;2023-04-02T05:34:26;8.30;99.90
64689;DHT22;62504;46.070;14.492;2023-04-02T05:36:52;8.40;99.90
64689;DHT22;62504;46.070;14.492;2023-04-02T05:39:24;8.40;99.90
64689;DHT22;62504;46.070;14.492;2023-04-02T05:44:33;8.40;99.90
64689;DHT22;62504;46.070;14.492;2023-04-02T05:47:01;8.50;99.90
64689;DHT22;62504;46.070;14.492;2023-04-02T05:49:43;8.70;99.90
64689;DHT22;62504;46.070;14.492;2023-04-02T05:52:19;8.50;99.90
64689;DHT22;62504;46.070;14.492;2023-04-02T05:54:50;8.70;99.90
64689;DHT22;62504;46.070;14.492;2023-04-02T05:57:21;8.90;99.90
64689;DHT22;62504;46.070;14.492;2023-04-02T05:59:56;8.80;99.90
64689;DHT22;62504;46.070;14.492;2023-04-02T06:02:35;9.00;99.90
64689;DHT22;62504;46.070;14.492;2023-04-02T06:05:20;9.10;99.90
64689;DHT22;62504;46.070;14.492;2023-04-02T06:10:26;9.20;99.90
64689;DHT22;62504;46.070;14.492;2023-04-02T06:12:59;9.20;99.90
64689;DHT22;62504;46.070;14.492;2023-04-02T06:15:29;9.20;99.90
64689;DHT22;62504;46.070;14.492;2023-04-02T06:20:45;9.50;99.90
64689;DHT22;62504;46.070;14.492;2023-04-02T06:23:24;9.60;99.90
64689;DHT22;62504;46.070;14.492;2023-04-02T06:26:26;9.60;99.90
64689;DHT22;62504;46.070;14.492;2023-04-02T06:29:32;9.60;99.90
64689;DHT22;62504;46.070;14.492;2023-04-02T06:31:54;9.60;99.90
64689;DHT22;62504;46.070;14.492;2023-04-02T06:34:23;9.50;99.90
64689;DHT22;62504;46.070;14.492;2023-04-02T06:36:53;9.60;99.90
64689;DHT22;62504;46.070;14.492;2023-04-02T06:39:21;9.60;99.90
64689;DHT22;62504;46.070;14.492;2023-04-02T06:42:00;9.60;99.90
64689;DHT22;62504;46.070;14.492;2023-04-02T06:44:31;9.60;99.90
64689;DHT22;62504;46.070;14.492;2023-04-02T06:47:33;9.60;99.90
64689;DHT22;62504;46.070;14.492;2023-04-02T06:52:50;9.60;99.90
64689;DHT22;62504;46.070;14.492;2023-04-02T06:57:45;9.60;99.90
64689;DHT22;62504;46.070;14.492;2023-04-02T07:00:27;9.50;99.90
64689;DHT22;62504;46.070;14.492;2023-04-02T07:02:56;9.50;99.90
64689;DHT22;62504;46.070;14.492;2023-04-02T07:05:23;9.60;99.90
64689;DHT22;62504;46.070;14.492;2023-04-02T07:07:49;9.50;99.90
64689;DHT22;62504;46.070;14.492;2023-04-02T07:10:15;9.70;99.90
64689;DHT22;62504;46.070;14.492;2023-04-02T07:12:41;9.60;99.90
64689;DHT22;62504;46.070;14.492;2023-04-02T07:15:09;9.80;99.90
64689;DHT22;62504;46.070;14.492;2023-04-02T07:17:35;9.80;99.90
64689;DHT22;62504;46.070;14.492;2023-04-02T07:20:01;9.80;99.90
64689;DHT22;62504;46.070;14.492;2023-04-02T07:22:26;10.00;99.90
64689;DHT22;62504;46.070;14.492;2023-04-02T07:24:52;10.10;99.90
64689;DHT22;62504;46.070;14.492;2023-04-02T07:27:18;10.20;99.90
64689;DHT22;62504;46.070;14.492;2023-04-02T07:29:43;10.10;99.90
64689;DHT22;62504;46.070;14.492;2023-04-02T07:32:12;10.20;99.90
64689;DHT22;62504;46.070;14.492;2023-04-02T07:34:39;10.20;99.90
64689;DHT22;62504;46.070;14.492;2023-04-02T07:37:05;10.20;99.90
64689;DHT22;62504;46.070;14.492;2023-04-02T07:39:32;10.20;99.90
64689;DHT22;62504;46.070;14.492;2023-04-02T07:42:00;10.40;99.90
64689;DHT22;62504;46.070;14.492;2023-04-02T07:44:27;10.40;99.90
64689;DHT22;62504;46.070;14.492;2023-04-02T07:46:52;10.50;99.90
64689;DHT22;62504;46.070;14.492;2023-04-02T07:49:18;10.50;99.90
64689;DHT22;62504;46.070;14.492;2023-04-02T07:51:44;10.50;99.90
64689;DHT22;62504;46.070;14.492;2023-04-02T07:54:10;10.40;99.90
64689;DHT22;62504;46.070;14.492;2023-04-02T07:56:36;10.60;99.90
64689;DHT22;62504;46.070;14.492;2023-04-02T07:59:03;10.80;99.90
64689;DHT22;62504;46.070;14.492;2023-04-02T08:01:29;11.00;99.90
64689;DHT22;62504;46.070;14.492;2023-04-02T08:04:01;11.20;99.90
64689;DHT22;62504;46.070;14.492;2023-04-02T08:06:27;11.30;99.90
64689;DHT22;62504;46.070;14.492;2023-04-02T08:08:52;11.70;99.90
64689;DHT22;62504;46.070;14.492;2023-04-02T08:11:18;12.10;99.90
64689;DHT22;62504;46.070;14.492;2023-04-02T08:13:44;12.30;99.90
64689;DHT22;62504;46.070;14.492;2023-04-02T08:16:10;12.20;99.90
64689;DHT22;62504;46.070;14.492;2023-04-02T08:18:36;12.30;99.90
64689;DHT22;62504;46.070;14.492;2023-04-02T08:21:04;12.30;99.90
64689;DHT22;62504;46.070;14.492;2023-04-02T08:23:33;12.30;99.90
64689;DHT22;62504;46.070;14.492;2023-04-02T08:26:00;12.30;99.90
64689;DHT22;62504;46.070;14.492;2023-04-02T08:28:25;12.50;99.90
64689;DHT22;62504;46.070;14.492;2023-04-02T08:30:51;12.60;99.90
64689;DHT22;62504;46.070;14.492;2023-04-02T08:33:17;12.80;99.90
64689;DHT22;62504;46.070;14.492;2023-04-02T08:35:45;12.80;99.90
64689;DHT22;62504;46.070;14.492;2023-04-02T08:38:18;13.00;99.90
64689;DHT22;62504;46.070;14.492;2023-04-02T08:40:46;13.30;99.90
64689;DHT22;62504;46.070;14.492;2023-04-02T08:48:50;13.10;99.90
64689;DHT22;62504;46.070;14.492;2023-04-02T08:51:28;13.00;99.90
64689;DHT22;62504;46.070;14.492;2023-04-02T08:53:59;12.80;99.90
64689;DHT22;62504;46.070;14.492;2023-04-02T08:56:31;13.00;99.90
64689;DHT22;62504;46.070;14.492;2023-04-02T08:59:06;13.20;99.90
64689;DHT22;62504;46.070;14.492;2023-04-02T09:04:20;13.30;99.90
64689;DHT22;62504;46.070;14.492;2023-04-02T09:06:48;13.30;99.90
64689;DHT22;62504;46.070;14.492;2023-04-02T09:09:17;13.50;99.90
64689;DHT22;62504;46.070;14.492;2023-04-02T09:11:46;13.50;99.90
64689;DHT22;62504;46.070;14.492;2023-04-02T09:14:20;13.50;99.90
64689;DHT22;62504;46.070;14.492;2023-04-02T09:16:53;13.60;99.90
64689;DHT22;62504;46.070;14.492;2023-04-02T09:19:37;13.50;99.90
64689;DHT22;62504;46.070;14.492;2023-04-02T09:24:51;14.00;99.90
64689;DHT22;62504;46.070;14.492;2023-04-02T09:27:25;14.20;99.90
64689;DHT22;62504;46.070;14.492;2023-04-02T09:32:50;14.40;99.90
64689;DHT22;62504;46.070;14.492;2023-04-02T09:35:25;14.20;99.90
64689;DHT22;62504;46.070;14.492;2023-04-02T09:38:09;14.20;99.90
64689;DHT22;62504;46.070;14.492;2023-04-02T09:43:16;14.20;99.90
64689;DHT22;62504;46.070;14.492;2023-04-02T09:45:43;14.30;99.90
64689;DHT22;62504;46.070;14.492;2023-04-02T09:48:56;14.50;99.90
64689;DHT22;62504;46.070;14.492;2023-04-02T09:51:30;14.70;99.90
64689;DHT22;62504;46.070;14.492;2023-04-02T09:56:28;14.70;99.90
64689;DHT22;62504;46.070;14.492;2023-04-02T10:01:34;14.90;99.90
64689;DHT22;62504;46.070;14.492;2023-04-02T10:04:01;14.90;99.90
64689;DHT22;62504;46.070;14.492;2023-04-02T10:06:28;14.60;99.90
64689;DHT22;62504;46.070;14.492;2023-04-02T10:08:55;14.90;99.90
64689;DHT22;62504;46.070;14.492;2023-04-02T10:11:29;14.90;99.90
64689;DHT22;62504;46.070;14.492;2023-04-02T10:14:10;14.90;99.90
64689;DHT22;62504;46.070;14.492;2023-04-02T10:16:43;14.90;99.90
64689;DHT22;62504;46.070;14.492;2023-04-02T10:21:45;14.90;99.90
64689;DHT22;62504;46.070;14.492;2023-04-02T10:24:14;14.90;99.90
64689;DHT22;62504;46.070;14.492;2023-04-02T10:33:04;14.80;99.90
64689;DHT22;62504;46.070;14.492;2023-04-02T10:51:53;15.70;99.90
64689;DHT22;62504;46.070;14.492;2023-04-02T10:57:30;15.70;99.90
64689;DHT22;62504;46.070;14.492;2023-04-02T11:00:13;15.70;99.90
64689;DHT22;62504;46.070;14.492;2023-04-02T11:05:45;15.90;99.90
64689;DHT22;62504;46.070;14.492;2023-04-02T11:10:49;16.10;99.90
64689;DHT22;62504;46.070;14.492;2023-04-02T11:16:04;16.00;99.90
64689;DHT22;62504;46.070;14.492;2023-04-02T11:18:32;16.20;99.90
64689;DHT22;62504;46.070;14.492;2023-04-02T11:23:58;16.50;99.90
64689;DHT22;62504;46.070;14.492;2023-04-02T11:26:32;16.40;99.90
64689;DHT22;62504;46.070;14.492;2023-04-02T11:29:26;16.50;99.90
64689;DHT22;62504;46.070;14.492;2023-04-02T11:42:48;16.00;96.90
64689;DHT22;62504;46.070;14.492;2023-04-02T11:50:32;16.20;95.40
64689;DHT22;62504;46.070;14.492;2023-04-02T11:53:34;16.10;95.30
64689;DHT22;62504;46.070;14.492;2023-04-02T11:56:19;16.20;95.90
64689;DHT22;62504;46.070;14.492;2023-04-02T12:11:59;16.20;93.40
64689;DHT22;62504;46.070;14.492;2023-04-02T12:17:27;16.20;93.50
64689;DHT22;62504;46.070;14.492;2023-04-02T12:19:57;16.20;94.00
64689;DHT22;62504;46.070;14.492;2023-04-02T12:22:29;16.00;93.10
64689;DHT22;62504;46.070;14.492;2023-04-02T12:24:59;16.00;92.60
64689;DHT22;62504;46.070;14.492;2023-04-02T12:27:27;16.00;92.60
64689;DHT22;62504;46.070;14.492;2023-04-02T12:30:20;16.00;92.60
64689;DHT22;62504;46.070;14.492;2023-04-02T12:32:47;16.00;93.00
64689;DHT22;62504;46.070;14.492;2023-04-02T12:35:32;16.10;93.50
64689;DHT22;62504;46.070;14.492;2023-04-02T12:37:58;16.20;92.90
64689;DHT22;62504;46.070;14.492;2023-04-02T12:40:24;16.10;92.50
64689;DHT22;62504;46.070;14.492;2023-04-02T12:42:51;16.10;92.70
64689;DHT22;62504;46.070;14.492;2023-04-02T12:45:27;16.10;93.10
64689;DHT22;62504;46.070;14.492;2023-04-02T12:47:56;16.20;93.90
64689;DHT22;62504;46.070;14.492;2023-04-02T12:50:22;16.30;94.90
64689;DHT22;62504;46.070;14.492;2023-04-02T12:52:50;16.30;93.30
64689;DHT22;62504;46.070;14.492;2023-04-02T12:55:20;16.50;94.60
64689;DHT22;62504;46.070;14.492;2023-04-02T12:57:46;16.40;92.70
64689;DHT22;62504;46.070;14.492;2023-04-02T13:03:14;16.50;93.00
64689;DHT22;62504;46.070;14.492;2023-04-02T13:08:23;16.40;92.20
64689;DHT22;62504;46.070;14.492;2023-04-02T13:11:00;16.50;93.10
64689;DHT22;62504;46.070;14.492;2023-04-02T13:13:46;16.50;93.30
64689;DHT22;62504;46.070;14.492;2023-04-02T13:18:44;16.50;92.80
64689;DHT22;62504;46.070;14.492;2023-04-02T13:23:44;16.40;92.60
64689;DHT22;62504;46.070;14.492;2023-04-02T13:26:25;16.50;93.40
64689;DHT22;62504;46.070;14.492;2023-04-02T13:29:02;16.50;93.60
64689;DHT22;62504;46.070;14.492;2023-04-02T13:31:30;16.50;93.20
64689;DHT22;62504;46.070;14.492;2023-04-02T13:33:57;16.50;95.80
64689;DHT22;62504;46.070;14.492;2023-04-02T13:36:23;16.50;94.30
64689;DHT22;62504;46.070;14.492;2023-04-02T13:38:49;16.50;94.40
64689;DHT22;62504;46.070;14.492;2023-04-02T13:41:26;16.50;93.40
64689;DHT22;62504;46.070;14.492;2023-04-02T13:43:57;16.60;95.00
64689;DHT22;62504;46.070;14.492;2023-04-02T13:46:32;16.70;96.40
64689;DHT22;62504;46.070;14.492;2023-04-02T13:48:58;16.80;96.70
64689;DHT22;62504;46.070;14.492;2023-04-02T13:51:33;16.80;97.40
64689;DHT22;62504;46.070;14.492;2023-04-02T13:54:00;16.90;96.40
64689;DHT22;62504;46.070;14.492;2023-04-02T13:56:26;16.90;94.30
64689;DHT22;62504;46.070;14.492;2023-04-02T13:58:52;17.00;94.30
64689;DHT22;62504;46.070;14.492;2023-04-02T14:01:18;16.90;94.60
64689;DHT22;62504;46.070;14.492;2023-04-02T14:03:45;17.00;94.50
64689;DHT22;62504;46.070;14.492;2023-04-02T14:09:23;16.90;93.60
64689;DHT22;62504;46.070;14.492;2023-04-02T14:13:10;16.90;93.80
64689;DHT22;62504;46.070;14.492;2023-04-02T14:15:04;16.90;93.90
64689;DHT22;62504;46.070;14.492;2023-04-02T14:20:36;16.80;93.30
64689;DHT22;62504;46.070;14.492;2023-04-02T14:31:46;16.90;93.40
64689;DHT22;62504;46.070;14.492;2023-04-02T14:42:14;17.10;92.70
64689;DHT22;62504;46.070;14.492;2023-04-02T14:44:47;17.10;92.80
64689;DHT22;62504;46.070;14.492;2023-04-02T14:47:24;17.10;91.70
64689;DHT22;62504;46.070;14.492;2023-04-02T14:50:01;17.00;91.30
64689;DHT22;62504;46.070;14.492;2023-04-02T14:52:32;16.90;91.70
64689;DHT22;62504;46.070;14.492;2023-04-02T14:55:04;16.90;92.40
64689;DHT22;62504;46.070;14.492;2023-04-02T14:57:38;16.90;92.60
64689;DHT22;62504;46.070;14.492;2023-04-02T15:08:43;16.60;92.80
64689;DHT22;62504;46.070;14.492;2023-04-02T15:16:28;16.40;92.00
64689;DHT22;62504;46.070;14.492;2023-04-02T15:18:58;16.50;92.80
64689;DHT22;62504;46.070;14.492;2023-04-02T15:30:29;16.60;92.30
64689;DHT22;62504;46.070;14.492;2023-04-02T15:35:58;16.50;92.20
64689;DHT22;62504;46.070;14.492;2023-04-02T15:38:40;16.50;92.40
64689;DHT22;62504;46.070;14.492;2023-04-02T15:41:16;16.50;92.60
64689;DHT22;62504;46.070;14.492;2023-04-02T15:46:17;16.70;92.50
64689;DHT22;62504;46.070;14.492;2023-04-02T16:00:24;16.60;91.10
64689;DHT22;62504;46.070;14.492;2023-04-02T16:03:15;16.50;89.80
64689;DHT22;62504;46.070;14.492;2023-04-02T16:11:09;16.20;91.70
64689;DHT22;62504;46.070;14.492;2023-04-02T16:13:37;16.20;92.00
64689;DHT22;62504;46.070;14.492;2023-04-02T16:20:54;16.00;93.00
64689;DHT22;62504;46.070;14.492;2023-04-02T16:23:29;15.90;93.20
64689;DHT22;62504;46.070;14.492;2023-04-02T16:28:28;15.80;93.90
64689;DHT22;62504;46.070;14.492;2023-04-02T16:31:45;15.80;94.00
64689;DHT22;62504;46.070;14.492;2023-04-02T16:37:26;15.70;94.70
64689;DHT22;62504;46.070;14.492;2023-04-02T16:40:10;15.60;95.10
64689;DHT22;62504;46.070;14.492;2023-04-02T16:53:24;14.70;99.60
64689;DHT22;62504;46.070;14.492;2023-04-02T16:59:13;14.60;99.90
64689;DHT22;62504;46.070;14.492;2023-04-02T17:02:01;14.60;99.90
64689;DHT22;62504;46.070;14.492;2023-04-02T17:07:30;14.40;99.90
64689;DHT22;62504;46.070;14.492;2023-04-02T17:10:23;14.40;99.90
64689;DHT22;62504;46.070;14.492;2023-04-02T17:13:00;14.40;99.90
64689;DHT22;62504;46.070;14.492;2023-04-02T17:15:33;14.40;99.90
64689;DHT22;62504;46.070;14.492;2023-04-02T17:18:17;14.50;99.90
64689;DHT22;62504;46.070;14.492;2023-04-02T17:20:45;14.30;99.90
64689;DHT22;62504;46.070;14.492;2023-04-02T17:23:15;14.30;99.90
64689;DHT22;62504;46.070;14.492;2023-04-02T17:25:53;14.30;99.90
64689;DHT22;62504;46.070;14.492;2023-04-02T17:28:24;14.50;99.90
64689;DHT22;62504;46.070;14.492;2023-04-02T17:30:56;14.50;99.90
64689;DHT22;62504;46.070;14.492;2023-04-02T17:33:23;14.50;99.90
64689;DHT22;62504;46.070;14.492;2023-04-02T17:49:38;14.50;99.90
64689;DHT22;62504;46.070;14.492;2023-04-02T17:52:28;14.40;99.90
64689;DHT22;62504;46.070;14.492;2023-04-02T18:06:04;14.10;99.90
64689;DHT22;62504;46.070;14.492;2023-04-02T18:11:46;14.00;99.90
64689;DHT22;62504;46.070;14.492;2023-04-02T18:14:29;13.90;99.90
64689;DHT22;62504;46.070;14.492;2023-04-02T18:17:11;14.00;99.90
64689;DHT22;62504;46.070;14.492;2023-04-02T18:19:56;14.00;99.90
64689;DHT22;62504;46.070;14.492;2023-04-02T18:25:20;13.90;99.90
64689;DHT22;62504;46.070;14.492;2023-04-02T18:30:26;13.70;99.90
64689;DHT22;62504;46.070;14.492;2023-04-02T18:44:10;13.50;99.90
64689;DHT22;62504;46.070;14.492;2023-04-02T18:47:11;13.50;99.90
64689;DHT22;62504;46.070;14.492;2023-04-02T18:49:47;13.40;99.90
64689;DHT22;62504;46.070;14.492;2023-04-02T18:52:16;13.40;99.90
64689;DHT22;62504;46.070;14.492;2023-04-02T18:57:30;13.20;99.90
64689;DHT22;62504;46.070;14.492;2023-04-02T19:10:44;13.10;99.90
64689;DHT22;62504;46.070;14.492;2023-04-02T19:13:15;13.00;99.90
64689;DHT22;62504;46.070;14.492;2023-04-02T19:16:27;13.00;99.90
64689;DHT22;62504;46.070;14.492;2023-04-02T19:26:20;12.90;99.90
64689;DHT22;62504;46.070;14.492;2023-04-02T19:37:18;13.00;99.90
64689;DHT22;62504;46.070;14.492;2023-04-02T19:45:36;13.10;99.90
64689;DHT22;62504;46.070;14.492;2023-04-02T19:48:20;13.10;99.90
64689;DHT22;62504;46.070;14.492;2023-04-02T19:50:48;13.00;99.90
64689;DHT22;62504;46.070;14.492;2023-04-02T19:53:14;13.00;99.90
64689;DHT22;62504;46.070;14.492;2023-04-02T19:55:41;13.00;99.90
64689;DHT22;62504;46.070;14.492;2023-04-02T19:58:16;13.00;99.90
64689;DHT22;62504;46.070;14.492;2023-04-02T20:00:42;13.10;99.90
64689;DHT22;62504;46.070;14.492;2023-04-02T20:03:08;13.10;99.90
64689;DHT22;62504;46.070;14.492;2023-04-02T20:05:34;13.00;99.90
64689;DHT22;62504;46.070;14.492;2023-04-02T20:07:59;13.20;99.90
64689;DHT22;62504;46.070;14.492;2023-04-02T20:10:25;13.20;99.90
64689;DHT22;62504;46.070;14.492;2023-04-02T20:12:51;13.10;99.90
64689;DHT22;62504;46.070;14.492;2023-04-02T20:15:16;13.10;99.90
64689;DHT22;62504;46.070;14.492;2023-04-02T20:17:42;13.10;99.90
64689;DHT22;62504;46.070;14.492;2023-04-02T20:20:08;13.20;99.90
64689;DHT22;62504;46.070;14.492;2023-04-02T20:22:34;13.30;99.90
64689;DHT22;62504;46.070;14.492;2023-04-02T20:25:00;13.30;99.90
64689;DHT22;62504;46.070;14.492;2023-04-02T20:27:26;13.30;99.90
64689;DHT22;62504;46.070;14.492;2023-04-02T20:29:52;13.30;99.90
64689;DHT22;62504;46.070;14.492;2023-04-02T20:32:17;13.30;99.90
64689;DHT22;62504;46.070;14.492;2023-04-02T20:34:43;13.20;99.90
64689;DHT22;62504;46.070;14.492;2023-04-02T20:37:09;13.20;99.90
64689;DHT22;62504;46.070;14.492;2023-04-02T20:39:35;13.20;99.90
64689;DHT22;62504;46.070;14.492;2023-04-02T20:42:01;13.10;99.90
64689;DHT22;62504;46.070;14.492;2023-04-02T20:44:28;13.00;99.90
64689;DHT22;62504;46.070;14.492;2023-04-02T20:46:54;13.00;99.90
64689;DHT22;62504;46.070;14.492;2023-04-02T20:49:19;13.00;99.90
64689;DHT22;62504;46.070;14.492;2023-04-02T20:51:45;13.00;99.90
64689;DHT22;62504;46.070;14.492;2023-04-02T20:54:11;13.00;99.90
64689;DHT22;62504;46.070;14.492;2023-04-02T20:56:38;13.00;99.90
64689;DHT22;62504;46.070;14.492;2023-04-02T20:59:04;13.00;99.90
64689;DHT22;62504;46.070;14.492;2023-04-02T21:01:29;13.00;99.90
64689;DHT22;62504;46.070;14.492;2023-04-02T21:03:56;13.00;99.90
64689;DHT22;62504;46.070;14.492;2023-04-02T21:06:23;13.00;99.90
64689;DHT22;62504;46.070;14.492;2023-04-02T21:08:50;12.80;99.90
64689;DHT22;62504;46.070;14.492;2023-04-02T21:11:17;12.80;99.90
64689;DHT22;62504;46.070;14.492;2023-04-02T21:13:43;12.80;99.90
64689;DHT22;62504;46.070;14.492;2023-04-02T21:16:23;12.80;99.90
64689;DHT22;62504;46.070;14.492;2023-04-02T21:18:50;12.80;99.90
64689;DHT22;62504;46.070;14.492;2023-04-02T21:21:17;12.70;99.90
64689;DHT22;62504;46.070;14.492;2023-04-02T21:23:43;12.70;99.90
64689;DHT22;62504;46.070;14.492;2023-04-02T21:26:15;12.70;99.90
64689;DHT22;62504;46.070;14.492;2023-04-02T21:28:42;12.80;99.90
64689;DHT22;62504;46.070;14.492;2023-04-02T21:31:20;12.80;99.90
64689;DHT22;62504;46.070;14.492;2023-04-02T21:33:48;12.90;99.90
64689;DHT22;62504;46.070;14.492;2023-04-02T21:36:18;12.80;99.90
64689;DHT22;62504;46.070;14.492;2023-04-02T21:38:46;12.80;99.90
64689;DHT22;62504;46.070;14.492;2023-04-02T21:41:16;12.80;99.90
64689;DHT22;62504;46.070;14.492;2023-04-02T21:43:42;12.70;99.90
64689;DHT22;62504;46.070;14.492;2023-04-02T21:46:10;12.70;99.90
64689;DHT22;62504;46.070;14.492;2023-04-02T21:48:37;12.70;99.90
64689;DHT22;62504;46.070;14.492;2023-04-02T21:51:10;12.60;99.90
64689;DHT22;62504;46.070;14.492;2023-04-02T21:53:37;12.60;99.90
64689;DHT22;62504;46.070;14.492;2023-04-02T21:56:05;12.70;99.90
64689;DHT22;62504;46.070;14.492;2023-04-02T21:58:32;12.60;99.90
64689;DHT22;62504;46.070;14.492;2023-04-02T22:00:57;12.70;99.90
64689;DHT22;62504;46.070;14.492;2023-04-02T22:03:24;12.60;99.90
64689;DHT22;62504;46.070;14.492;2023-04-02T22:05:59;12.50;99.90
64689;DHT22;62504;46.070;14.492;2023-04-02T22:08:25;12.40;99.90
64689;DHT22;62504;46.070;14.492;2023-04-02T22:10:51;12.40;99.90
64689;DHT22;62504;46.070;14.492;2023-04-02T22:13:16;12.30;99.90
64689;DHT22;62504;46.070;14.492;2023-04-02T22:15:42;12.40;99.90
64689;DHT22;62504;46.070;14.492;2023-04-02T22:18:08;12.30;99.90